createdAt,value
2019-01-03T00:00:37.257Z,22
2019-01-03T00:03:43.169Z,22
2019-01-03T00:06:49.097Z,22
2019-01-03T00:09:55.081Z,22
2019-01-03T00:13:00.992Z,22
2019-01-03T00:16:06.920Z,22
2019-01-03T00:19:12.928Z,22
2019-01-03T00:22:19.050Z,22
2019-01-03T00:25:25.051Z,22
2019-01-03T00:28:35.835Z,22
2019-01-03T00:31:42.101Z,21.9
2019-01-03T00:34:48.106Z,21.9
2019-01-03T00:37:54.056Z,21.9
2019-01-03T00:40:59.964Z,21.9
2019-01-03T00:44:06.020Z,21.9
2019-01-03T00:47:11.876Z,21.9
2019-01-03T00:50:17.827Z,21.9
2019-01-03T00:53:23.747Z,21.9
2019-01-03T00:56:29.681Z,21.9
2019-01-03T00:59:35.666Z,21.9
2019-01-03T01:02:41.687Z,21.9
2019-01-03T01:05:47.736Z,21.9
2019-01-03T01:08:53.701Z,21.9
2019-01-03T01:11:59.644Z,21.9
2019-01-03T01:15:05.699Z,22
2019-01-03T01:18:11.702Z,22
2019-01-03T01:21:20.423Z,22
2019-01-03T01:24:26.441Z,22
2019-01-03T01:27:32.395Z,22
2019-01-03T01:30:38.296Z,22.1
2019-01-03T01:33:44.239Z,22.1
2019-01-03T01:36:50.121Z,22.1
2019-01-03T01:39:56.055Z,22.2
2019-01-03T01:43:02.087Z,22.2
2019-01-03T01:46:07.977Z,22.2
2019-01-03T01:49:14.013Z,22.2
2019-01-03T01:52:19.891Z,22.2
2019-01-03T01:55:25.926Z,22.3
2019-01-03T01:58:31.928Z,22.3
2019-01-03T02:01:38.088Z,22.3
2019-01-03T02:04:44.188Z,22.3
2019-01-03T02:07:50.257Z,22.4
2019-01-03T02:10:56.506Z,22.4
2019-01-03T02:14:02.571Z,22.4
2019-01-03T02:17:08.542Z,22.4
2019-01-03T02:20:14.815Z,22.4
2019-01-03T02:23:20.840Z,22.5
2019-01-03T02:26:26.895Z,22.5
2019-01-03T02:29:32.909Z,22.5
2019-01-03T02:32:38.908Z,22.5
2019-01-03T02:35:44.914Z,22.6
2019-01-03T02:38:50.894Z,22.6
2019-01-03T02:41:56.960Z,22.6
2019-01-03T02:45:05.687Z,22.6
2019-01-03T02:48:11.667Z,22.6
2019-01-03T02:51:17.739Z,22.6
2019-01-03T02:54:26.452Z,22.7
2019-01-03T02:57:32.302Z,22.7
2019-01-03T03:00:38.332Z,22.7
2019-01-03T03:03:44.348Z,22.7
2019-01-03T03:06:50.287Z,22.7
2019-01-03T03:09:56.308Z,22.7
2019-01-03T03:13:02.206Z,22.7
2019-01-03T03:16:08.133Z,22.7
2019-01-03T03:19:14.171Z,22.8
2019-01-03T03:22:20.143Z,22.8
2019-01-03T03:25:28.841Z,22.8
2019-01-03T03:28:34.895Z,22.8
2019-01-03T03:31:40.957Z,22.8
2019-01-03T03:34:46.998Z,22.8
2019-01-03T03:37:52.898Z,22.9
2019-01-03T03:40:58.840Z,22.8
2019-01-03T03:44:04.882Z,22.9
2019-01-03T03:47:10.979Z,22.9
2019-01-03T03:50:17.078Z,22.9
2019-01-03T03:53:23.063Z,22.9
2019-01-03T03:56:28.971Z,23
2019-01-03T03:59:34.888Z,23
2019-01-03T04:02:40.944Z,23
2019-01-03T04:05:46.872Z,23
2019-01-03T04:08:52.844Z,23.1
2019-01-03T04:11:58.822Z,23.1
2019-01-03T04:15:04.778Z,23.3
2019-01-03T04:18:10.805Z,23.4
2019-01-03T04:21:16.698Z,23.5
2019-01-03T04:24:22.766Z,23.5
2019-01-03T04:27:28.817Z,23.5
2019-01-03T04:30:34.799Z,23.5
2019-01-03T04:33:40.948Z,23.5
2019-01-03T04:36:47.007Z,23.5
2019-01-03T04:39:52.897Z,23.5
2019-01-03T04:42:58.882Z,23.5
2019-01-03T04:46:04.892Z,23.6
2019-01-03T04:49:10.895Z,23.6
2019-01-03T04:52:16.960Z,23.6
2019-01-03T04:55:22.970Z,23.6
2019-01-03T04:58:29.031Z,23.6
2019-01-03T05:01:35.043Z,23.7
2019-01-03T05:04:41.176Z,23.7
2019-01-03T05:07:47.102Z,23.7
2019-01-03T05:10:53.087Z,23.7
2019-01-03T05:13:59.088Z,23.8
2019-01-03T05:17:05.152Z,23.8
2019-01-03T05:20:11.115Z,23.8
2019-01-03T05:23:17.093Z,23.8
2019-01-03T05:26:22.924Z,23.8
2019-01-03T05:29:29.014Z,23.9
2019-01-03T05:32:34.890Z,23.8
2019-01-03T05:35:43.401Z,23.9
2019-01-03T05:38:49.284Z,23.9
2019-01-03T05:41:55.296Z,24
2019-01-03T05:45:01.275Z,24
2019-01-03T05:48:07.197Z,24
2019-01-03T05:51:13.159Z,24
2019-01-03T05:54:19.116Z,24.1
2019-01-03T05:57:25.114Z,24.1
2019-01-03T06:00:31.142Z,24.2
2019-01-03T06:03:37.135Z,24.2
2019-01-03T06:06:43.161Z,24.2
2019-01-03T06:09:49.170Z,24.3
2019-01-03T06:12:55.170Z,24.3
2019-01-03T06:16:01.200Z,24.4
2019-01-03T06:19:07.145Z,24.4
2019-01-03T06:22:13.072Z,24.5
2019-01-03T06:25:18.969Z,24.6
2019-01-03T06:28:25.037Z,24.6
2019-01-03T06:31:30.981Z,24.6
2019-01-03T06:34:36.937Z,24.6
2019-01-03T06:37:42.890Z,24.6
2019-01-03T06:40:48.875Z,24.6
2019-01-03T06:43:54.834Z,24.7
2019-01-03T06:47:03.893Z,24.7
2019-01-03T06:50:09.921Z,24.8
2019-01-03T06:53:15.886Z,24.9
2019-01-03T06:56:21.738Z,24.9
2019-01-03T06:59:27.680Z,25
2019-01-03T07:05:38.930Z,25
2019-01-03T07:08:44.983Z,25.1
2019-01-03T07:11:51.040Z,25
2019-01-03T07:14:57.078Z,25.1
2019-01-03T07:18:03.078Z,25.2
2019-01-03T07:21:09.014Z,25.2
2019-01-03T07:24:15.019Z,25.2
2019-01-03T07:27:21.015Z,25.3
2019-01-03T07:30:27.040Z,25.3
2019-01-03T07:33:33.040Z,25.4
2019-01-03T07:36:39.004Z,25.4
2019-01-03T07:39:44.915Z,25.4
2019-01-03T07:42:50.984Z,25.4
2019-01-03T07:45:56.879Z,25.4
2019-01-03T07:49:02.834Z,25.5
2019-01-03T07:52:08.692Z,25.5
2019-01-03T07:55:15.735Z,25.5
2019-01-03T08:01:26.037Z,25.5
2019-01-03T08:04:32.314Z,25.5
2019-01-03T08:07:40.342Z,25.5
2019-01-03T08:10:46.553Z,25.4
2019-01-03T08:13:52.979Z,25.5
2019-01-03T08:17:00.058Z,25.6
2019-01-03T08:20:06.152Z,25.7
2019-01-03T08:23:12.350Z,25.6
2019-01-03T08:26:18.343Z,25.6
2019-01-03T08:29:26.845Z,25.6
2019-01-03T08:32:32.935Z,25.7
2019-01-03T08:35:38.902Z,25.7
2019-01-03T08:38:46.064Z,25.5
2019-01-03T08:41:52.960Z,26.5
2019-01-03T08:44:58.922Z,27.4
2019-01-03T08:48:06.024Z,28
2019-01-03T08:51:12.081Z,28.5
2019-01-03T08:54:17.999Z,28.8
2019-01-03T08:57:23.904Z,29
2019-01-03T09:00:30.890Z,29.2
2019-01-03T09:03:38.039Z,29.3
2019-01-03T09:06:44.325Z,29.4
2019-01-03T09:09:51.533Z,29.2
2019-01-03T09:12:57.514Z,29.5
2019-01-03T09:16:03.422Z,29.6
2019-01-03T09:19:09.790Z,29.5
2019-01-03T09:22:15.971Z,29.5
2019-01-03T09:25:21.975Z,29.5
2019-01-03T09:28:27.962Z,29.5
2019-01-03T09:31:33.911Z,29.5
2019-01-03T09:34:39.857Z,29.5
2019-01-03T09:37:47.167Z,29.4
2019-01-03T09:40:53.058Z,29.2
2019-01-03T09:44:00.044Z,29.4
2019-01-03T09:47:06.099Z,29.4
2019-01-03T09:50:12.013Z,29.5
2019-01-03T09:53:18.174Z,29.5
2019-01-03T09:56:24.416Z,29.4
2019-01-03T09:59:31.872Z,29.4
2019-01-03T10:02:38.187Z,29.5
2019-01-03T10:05:44.252Z,29.6
2019-01-03T10:08:50.232Z,29.6
2019-01-03T10:11:56.202Z,29.6
2019-01-03T10:15:02.117Z,29.5
2019-01-03T10:18:08.126Z,29.6
2019-01-03T10:21:14.481Z,29.6
2019-01-03T10:24:22.683Z,29.6
2019-01-03T10:27:28.587Z,29.5
2019-01-03T10:30:34.517Z,29.5
2019-01-03T10:33:40.604Z,29.4
2019-01-03T10:36:46.462Z,29.4
2019-01-03T10:39:55.102Z,29.5
2019-01-03T10:43:01.058Z,29.5
2019-01-03T10:46:07.040Z,29.5
2019-01-03T10:49:13.737Z,29.4
2019-01-03T10:52:22.174Z,29.5
2019-01-03T10:55:28.057Z,29.5
2019-01-03T10:58:34.004Z,29.4
2019-01-03T11:01:40.040Z,29.4
2019-01-03T11:04:45.991Z,29.4
2019-01-03T11:07:51.942Z,29.4
2019-01-03T11:11:02.064Z,29.3
2019-01-03T11:14:08.116Z,29.4
2019-01-03T11:17:14.042Z,29.4
2019-01-03T11:20:19.943Z,29.4
2019-01-03T11:23:26.982Z,29.4
2019-01-03T11:26:32.994Z,29.4
2019-01-03T11:29:38.843Z,29.3
2019-01-03T11:32:44.798Z,29.4
2019-01-03T11:35:51.751Z,29.4
2019-01-03T11:38:57.641Z,29.3
2019-01-03T11:42:04.583Z,29.4
2019-01-03T11:45:10.563Z,29.4
2019-01-03T11:48:19.767Z,29.3
2019-01-03T11:51:26.740Z,29.4
2019-01-03T11:54:32.812Z,29.3
2019-01-03T11:57:38.786Z,29.4
2019-01-03T12:00:44.682Z,29.4
2019-01-03T12:03:50.770Z,29.4
2019-01-03T12:06:59.538Z,29.3
2019-01-03T12:10:06.507Z,29.4
2019-01-03T12:13:12.595Z,29.4
2019-01-03T12:16:18.661Z,29.3
2019-01-03T12:19:25.770Z,29.5
2019-01-03T12:22:33.984Z,29.5
2019-01-03T12:25:40.100Z,29.5
2019-01-03T12:28:46.204Z,29.5
2019-01-03T12:31:52.310Z,29.5
2019-01-03T12:34:58.379Z,29.4
2019-01-03T12:38:04.357Z,29.6
2019-01-03T12:41:10.370Z,29.7
2019-01-03T12:44:16.462Z,29.8
2019-01-03T12:47:22.642Z,29.7
2019-01-03T12:50:28.788Z,29.7
2019-01-03T12:53:36.768Z,29.7
2019-01-03T12:56:42.702Z,29.7
2019-01-03T12:59:49.660Z,29.7
2019-01-03T13:02:55.701Z,29.5
2019-01-03T13:06:01.890Z,29.5
2019-01-03T13:09:07.791Z,29.5
2019-01-03T13:12:13.842Z,29.5
2019-01-03T13:15:19.904Z,29.2
2019-01-03T13:18:26.156Z,28.3
2019-01-03T13:21:32.082Z,27.6
2019-01-03T13:24:38.173Z,27.2
2019-01-03T13:27:44.434Z,26.8
2019-01-03T13:30:50.452Z,26.4
2019-01-03T13:33:56.372Z,26.2
2019-01-03T13:37:02.386Z,26.2
2019-01-03T13:40:08.277Z,26.2
2019-01-03T13:43:14.342Z,26.2
2019-01-03T13:46:20.228Z,26.2
2019-01-03T13:49:26.204Z,26.2
2019-01-03T13:52:32.567Z,26.1
2019-01-03T13:55:39.631Z,26.1
2019-01-03T13:58:45.808Z,26.1
2019-01-03T14:01:51.858Z,26.1
2019-01-03T14:04:57.842Z,26.1
2019-01-03T14:08:03.813Z,26
2019-01-03T14:11:09.805Z,26.1
2019-01-03T14:14:15.852Z,26
2019-01-03T14:17:23.206Z,26.2
2019-01-03T14:20:29.208Z,26.2
2019-01-03T14:23:35.368Z,26.1
2019-01-03T14:26:41.631Z,26.2
2019-01-03T14:29:47.574Z,26.2
2019-01-03T14:32:53.576Z,26
2019-01-03T14:35:59.585Z,25.9
2019-01-03T14:39:05.761Z,25.7
2019-01-03T14:42:11.885Z,25.6
2019-01-03T14:45:18.074Z,25.5
2019-01-03T14:48:25.416Z,25.5
2019-01-03T14:51:31.690Z,25.4
2019-01-03T14:54:38.532Z,25.4
2019-01-03T14:57:44.892Z,25.4
2019-01-03T15:00:51.788Z,25.3
2019-01-03T15:03:57.807Z,25.3
2019-01-03T15:07:03.783Z,25.2
2019-01-03T15:10:09.829Z,25.2
2019-01-03T15:13:15.932Z,25.2
2019-01-03T15:16:21.862Z,25.2
2019-01-03T15:19:27.886Z,25.2
2019-01-03T15:22:33.857Z,25.1
2019-01-03T15:25:39.992Z,25.1
2019-01-03T15:28:45.987Z,25.1
2019-01-03T15:31:51.856Z,25.1
2019-01-03T15:34:58.023Z,25.1
2019-01-03T15:38:04.093Z,25.1
2019-01-03T15:41:10.298Z,25.1
2019-01-03T15:44:16.296Z,25.1
2019-01-03T15:47:22.429Z,25.1
2019-01-03T15:50:28.596Z,25.1
2019-01-03T15:53:34.587Z,25.1
2019-01-03T15:56:40.815Z,25
2019-01-03T15:59:47.941Z,25
2019-01-03T16:02:54.072Z,25
2019-01-03T16:05:59.950Z,25
2019-01-03T16:09:05.921Z,25
2019-01-03T16:12:11.988Z,25
2019-01-03T16:15:18.151Z,25
2019-01-03T16:18:25.207Z,25
2019-01-03T16:21:31.198Z,25
2019-01-03T16:24:37.138Z,24.9
2019-01-03T16:27:43.177Z,25
2019-01-03T16:30:49.160Z,25
2019-01-03T16:33:55.038Z,24.9
2019-01-03T16:37:00.969Z,24.9
2019-01-03T16:40:06.852Z,24.9
2019-01-03T16:43:12.856Z,24.8
2019-01-03T16:46:18.759Z,24.9
2019-01-03T16:49:24.785Z,24.8
2019-01-03T16:52:30.625Z,24.9
2019-01-03T16:55:36.698Z,24.8
2019-01-03T16:58:43.661Z,24.9
2019-01-03T17:01:50.691Z,24.8
2019-01-03T17:04:56.673Z,24.8
2019-01-03T17:08:02.510Z,24.8
2019-01-03T17:11:08.454Z,24.8
2019-01-03T17:14:14.325Z,24.8
2019-01-03T17:17:20.312Z,24.8
2019-01-03T17:20:26.254Z,24.8
2019-01-03T17:23:32.202Z,24.7
2019-01-03T17:26:38.142Z,24.7
2019-01-03T17:29:44.131Z,24.7
2019-01-03T17:32:50.058Z,24.7
2019-01-03T17:35:56.131Z,24.7
2019-01-03T17:39:02.005Z,24.7
2019-01-03T17:42:07.958Z,24.7
2019-01-03T17:45:13.823Z,24.7
2019-01-03T17:48:22.785Z,24.7
2019-01-03T17:51:28.840Z,24.6
2019-01-03T17:54:34.832Z,24.6
2019-01-03T17:57:40.855Z,24.6
2019-01-03T18:00:46.833Z,24.6
2019-01-03T18:03:52.840Z,24.6
2019-01-03T18:06:58.842Z,24.6
2019-01-03T18:10:04.875Z,24.6
2019-01-03T18:13:10.880Z,24.5
2019-01-03T18:16:16.858Z,24.5
2019-01-03T18:19:22.810Z,24.5
2019-01-03T18:22:28.709Z,24.4
2019-01-03T18:25:34.719Z,24.4
2019-01-03T18:28:41.583Z,24.4
2019-01-03T18:31:47.568Z,24.3
2019-01-03T18:34:53.538Z,24.3
2019-01-03T18:37:59.438Z,24.3
2019-01-03T18:41:05.491Z,24.3
2019-01-03T18:44:11.473Z,24.2
2019-01-03T18:47:18.395Z,24.2
2019-01-03T18:50:24.334Z,24.2
2019-01-03T18:53:30.308Z,24.1
2019-01-03T18:56:36.278Z,24.1
2019-01-03T18:59:42.295Z,24.1
2019-01-03T19:02:48.341Z,24
2019-01-03T19:05:54.209Z,24
2019-01-03T19:09:00.242Z,24
2019-01-03T19:12:06.360Z,24
2019-01-03T19:15:12.388Z,24
2019-01-03T19:18:18.419Z,24
2019-01-03T19:21:24.349Z,23.9
2019-01-03T19:24:30.317Z,23.9
2019-01-03T19:27:36.441Z,23.9
2019-01-03T19:30:42.379Z,23.9
2019-01-03T19:33:48.398Z,23.8
2019-01-03T19:36:54.362Z,23.8
2019-01-03T19:40:00.353Z,23.8
2019-01-03T19:43:09.802Z,23.8
2019-01-03T19:46:15.784Z,23.7
2019-01-03T19:49:21.899Z,23.7
2019-01-03T19:52:27.800Z,23.6
2019-01-03T19:55:33.911Z,23.5
2019-01-03T19:58:39.910Z,23.5
2019-01-03T20:01:46.237Z,23.5
2019-01-03T20:04:52.147Z,23.4
2019-01-03T20:07:58.104Z,23.4
2019-01-03T20:11:04.034Z,23.3
2019-01-03T20:14:10.032Z,23.3
2019-01-03T20:17:16.044Z,23.3
2019-01-03T20:20:22.037Z,23.2
2019-01-03T20:23:27.903Z,23.2
2019-01-03T20:26:33.885Z,23.1
2019-01-03T20:29:39.820Z,23.1
2019-01-03T20:32:45.838Z,23
2019-01-03T20:35:51.851Z,23
2019-01-03T20:38:57.796Z,23
2019-01-03T20:42:03.774Z,23
2019-01-03T20:45:12.592Z,22.9
2019-01-03T20:48:18.540Z,22.9
2019-01-03T20:51:24.517Z,22.9
2019-01-03T20:54:30.467Z,22.9
2019-01-03T20:57:36.395Z,22.8
2019-01-03T21:00:42.335Z,22.8
2019-01-03T21:03:48.233Z,22.7
2019-01-03T21:06:54.219Z,22.7
2019-01-03T21:10:00.215Z,22.7
2019-01-03T21:13:06.167Z,22.6
2019-01-03T21:16:12.078Z,22.6
2019-01-03T21:19:18.017Z,22.6
2019-01-03T21:22:23.896Z,22.5
2019-01-03T21:25:29.845Z,22.5
2019-01-03T21:28:35.712Z,22.5
2019-01-03T21:31:41.638Z,22.5
2019-01-03T21:34:47.576Z,22.5
2019-01-03T21:37:53.410Z,22.4
2019-01-03T21:40:59.363Z,22.4
2019-01-03T21:44:05.422Z,22.4
2019-01-03T21:47:11.380Z,22.4
2019-01-03T21:50:17.428Z,22.3
2019-01-03T21:53:23.337Z,22.3
2019-01-03T21:56:29.308Z,22.2
2019-01-03T21:59:35.247Z,22.2
2019-01-03T22:02:41.255Z,22.2
2019-01-03T22:05:47.250Z,22.2
2019-01-03T22:08:53.258Z,22.2
2019-01-03T22:11:59.139Z,22.1
2019-01-03T22:15:05.215Z,22.1
2019-01-03T22:18:11.276Z,22.1
2019-01-03T22:21:17.184Z,22.1
2019-01-03T22:24:23.256Z,22.1
2019-01-03T22:27:29.151Z,22.1
2019-01-03T22:30:35.082Z,22
2019-01-03T22:33:41.024Z,22
2019-01-03T22:36:46.988Z,22
2019-01-03T22:39:52.997Z,22
2019-01-03T22:42:58.932Z,22
2019-01-03T22:46:04.927Z,22
2019-01-03T22:49:10.930Z,22
2019-01-03T22:52:16.943Z,21.9
2019-01-03T22:55:23.166Z,21.9
2019-01-03T22:58:29.067Z,21.9
2019-01-03T23:01:35.019Z,21.9
2019-01-03T23:04:41.201Z,21.9
2019-01-03T23:07:53.314Z,21.9
2019-01-03T23:10:59.307Z,21.8
2019-01-03T23:14:05.336Z,21.8
2019-01-03T23:17:11.287Z,21.8
2019-01-03T23:20:17.221Z,21.8
2019-01-03T23:23:23.212Z,21.8
2019-01-03T23:26:29.148Z,21.8
2019-01-03T23:29:35.567Z,21.8
2019-01-03T23:32:41.628Z,21.8
2019-01-03T23:35:47.646Z,21.7
2019-01-03T23:38:53.710Z,21.7
2019-01-03T23:41:59.687Z,21.7
2019-01-03T23:45:05.733Z,21.7
2019-01-03T23:48:11.752Z,21.7
2019-01-03T23:51:17.802Z,21.7
2019-01-03T23:54:23.726Z,21.6
2019-01-03T23:57:29.701Z,21.7
